Departure
Kobe Airport
Kobe, JP
cloud Weather
- Wind
- 220° / 14 kt
- Visibility
- 6 SM
- Ceiling
- FEW 3,000 ft
- Temp / Dew
- 32°C / 25°C
- Altimeter
- 29.88 inHg
Obs: 2026-09-01T06:00:00.000Z
Raw METAR
METAR RJBE 010600Z 22014KT 9999 FEW030 32/25 Q1012
route Route
Departure
Kobe, JP
Obs: 2026-09-01T06:00:00.000Z
METAR RJBE 010600Z 22014KT 9999 FEW030 32/25 Q1012
Arrival
Taoyuan, TW
Obs: 2026-09-01T06:00:00.000Z
METAR RCTP 010600Z 18004KT 130V230 9999 -SHRA FEW008 BKN025 BKN060 27/26 Q1002 RETS NOSIG RMK A2960 RA AMT 0.8MM TAF COR RCTP 010522Z 0106/0212 11010KT 9999 FEW015 BKN032 TEMPO 0106/0109 22010KT 2500 TSRA FEW008 FEW010CB BKN012 BKN025 TEMPO 0109/0112 4000 SHRA FEW012 FEW015CB BKN016 BKN030 TEMPO 0118/0124 03005KT BECMG 0204/0206 09015KT TEMPO 0206/0212 12010KT 4000 SHRA FEW012 FEW015CB BKN018 BKN030
| Airline | Flights shown |
|---|---|
| EVA Air | 16 |
| STARLUX Airlines | 12 |
| Date | Flight | Aircraft | Takeoff | Landing | Duration | Arr Δ |
|---|---|---|---|---|---|---|
| 2026-07-26 | EVA175 | 89904F | Jul 26, 12:15 UTC | Jul 26, 13:05 UTC | 50m | - |
| 2026-07-26 | EVA175 | 89904F | Jul 26, 10:20 UTC | Jul 26, 11:05 UTC | 45m | - |
| 2026-07-26 | SJX835 | 8991D7 | Jul 26, 04:40 UTC | Jul 26, 05:10 UTC | 30m | - |
| 2026-07-26 | SJX835 | 8991D7 | Jul 26, 02:55 UTC | Jul 26, 03:30 UTC | 35m | - |
| 2026-07-25 | EVA175 | 89906D | Jul 25, 13:00 UTC | Jul 25, 13:30 UTC | 30m | - |
| 2026-07-25 | EVA175 | 89906D | Jul 25, 11:05 UTC | Jul 25, 11:50 UTC | 45m | - |
| 2026-07-25 | SJX835 | 8990BB | Jul 25, 04:55 UTC | Jul 25, 05:15 UTC | 20m | - |
| 2026-07-25 | SJX835 | 8990BB | Jul 25, 02:55 UTC | Jul 25, 03:40 UTC | 45m | - |
| 2026-07-24 | EVA175 | 89904F | Jul 24, 12:30 UTC | Jul 24, 13:25 UTC | 55m | - |
| 2026-07-24 | EVA175 | 89904F | Jul 24, 10:30 UTC | Jul 24, 11:15 UTC | 45m | - |
| 2026-07-24 | EVA133 | 89904F | Jul 24, 02:40 UTC | Jul 24, 05:00 UTC | 2h 20m | - |
| 2026-07-23 | EVA175 | 899054 | Jul 23, 12:35 UTC | Jul 23, 12:55 UTC | 20m | - |
| 2026-07-23 | EVA175 | 899054 | Jul 23, 10:30 UTC | Jul 23, 11:15 UTC | 45m | - |
| 2026-07-23 | SJX835 | 8990BD | Jul 23, 04:50 UTC | Jul 23, 05:10 UTC | 20m | - |
| 2026-07-23 | SJX835 | 8990BD | Jul 23, 02:50 UTC | Jul 23, 03:35 UTC | 45m | - |
| 2026-07-22 | EVA175 | 899053 | Jul 22, 11:45 UTC | Jul 22, 12:30 UTC | 45m | - |
| 2026-07-22 | EVA133 | 899053 | Jul 22, 02:40 UTC | Jul 22, 04:55 UTC | 2h 15m | - |
| 2026-07-21 | EVA175 | 89904F | Jul 21, 12:15 UTC | Jul 21, 12:30 UTC | 15m | - |
| 2026-07-21 | EVA175 | 89904F | Jul 21, 10:10 UTC | Jul 21, 11:00 UTC | 50m | - |
| 2026-07-21 | SJX835 | 8991D4 | Jul 21, 05:00 UTC | Jul 21, 05:15 UTC | 15m | - |
| 2026-07-21 | SJX835 | 8991D4 | Jul 21, 03:00 UTC | Jul 21, 03:45 UTC | 45m | - |
| 2026-07-20 | EVA175 | 8990B2 | Jul 20, 10:20 UTC | Jul 20, 12:35 UTC | 2h 15m | - |
| 2026-07-20 | EVA133 | 8990B2 | Jul 20, 04:35 UTC | Jul 20, 05:00 UTC | 25m | - |
| 2026-07-20 | EVA133 | 8990B2 | Jul 20, 02:40 UTC | Jul 20, 03:25 UTC | 45m | - |
| 2026-07-19 | EVA175 | 89906D | Jul 19, 10:25 UTC | Jul 19, 12:45 UTC | 2h 20m | - |
| 2026-07-19 | SJX835 | 8991D4 | Jul 19, 03:00 UTC | Jul 19, 05:20 UTC | 2h 20m | - |
| 2026-07-17 | EVA133 | 89906E | Jul 17, 02:39 UTC | Jul 17, 04:59 UTC | 2h 20m | - |
| 2026-07-14 | SJX835 | 8991DA | Jul 14, 03:20 UTC | Jul 14, 05:40 UTC | 2h 20m | - |
| 2026-07-13 | EVA175 | 89904E | Jul 13, 10:05 UTC | Jul 13, 12:25 UTC | 2h 20m | - |
| 2026-07-13 | EVA133 | 89904E | Jul 13, 02:15 UTC | Jul 13, 04:35 UTC | 2h 20m | - |
| 2026-07-12 | EVA175 | 899054 | Jul 12, 10:25 UTC | Jul 12, 12:50 UTC | 2h 25m | - |
| 2026-07-10 | EVA133 | 89904F | Jul 10, 02:35 UTC | Jul 10, 04:55 UTC | 2h 20m | - |
| 2026-07-09 | SJX835 | 8991D9 | Jul 9, 03:15 UTC | Jul 9, 05:35 UTC | 2h 20m | - |
| 2026-07-08 | EVA175 | 89904E | Jul 8, 10:10 UTC | Jul 8, 12:35 UTC | 2h 25m | - |
| 2026-07-07 | EVA175 | 899076 | Jul 7, 10:40 UTC | Jul 7, 12:55 UTC | 2h 15m | - |
| 2026-07-06 | EVA133 | 899076 | Jul 6, 02:15 UTC | Jul 6, 04:35 UTC | 2h 20m | - |
| 2026-07-05 | EVA175 | 899053 | Jul 5, 10:10 UTC | Jul 5, 12:35 UTC | 2h 25m | - |
| 2026-07-03 | EVA133 | 8990B1 | Jul 3, 02:35 UTC | Jul 3, 05:05 UTC | 2h 30m | - |
| 2026-07-02 | SJX835 | 8990BB | Jul 2, 03:05 UTC | Jul 2, 05:35 UTC | 2h 30m | - |
| 2026-07-01 | EVA133 | 899076 | Jul 1, 02:45 UTC | Jul 1, 05:05 UTC | 2h 20m | - |
| 2026-06-30 | EVA175 | 899054 | Jun 30, 10:10 UTC | Jun 30, 12:40 UTC | 2h 30m | - |
| 2026-06-30 | SJX835 | 8991D7 | Jun 30, 03:10 UTC | Jun 30, 05:35 UTC | 2h 25m | - |
| 2026-06-29 | EVA175 | 8990B2 | Jun 29, 10:20 UTC | Jun 29, 12:45 UTC | 2h 25m | - |
| 2026-06-29 | SJX1835 | 8991DA | Jun 29, 04:20 UTC | Jun 29, 06:50 UTC | 2h 30m | - |
| 2026-06-29 | EVA133 | 8990B2 | Jun 29, 02:39 UTC | Jun 29, 05:04 UTC | 2h 25m | - |
| 2026-06-26 | SJX1835 | 8990BD | Jun 26, 06:35 UTC | Jun 26, 06:54 UTC | 20m | - |
| 2026-06-26 | SJX1835 | 8990BD | Jun 26, 04:24 UTC | Jun 26, 04:59 UTC | 35m | - |
| 2026-06-24 | EVA175 | 8990B1 | Jun 24, 10:25 UTC | Jun 24, 12:50 UTC | 2h 25m | - |
| 2026-06-24 | SJX1835 | 8991D8 | Jun 24, 04:20 UTC | Jun 24, 06:35 UTC | 2h 15m | - |
| 2026-06-23 | SJX835 | 8990BE | Jun 23, 03:00 UTC | Jun 23, 05:24 UTC | 2h 25m | - |